Time;durP1;ratioP1;P1;durP2;ratioP2;P2;SDS_P1;SDS_P2;PMS_P1;PMS_P2;Temp;Humidity;BMP_temperature;BMP_pressure;BME280_temperature;BME280_humidity;BME280_pressure;Samples;Min_cycle;Max_cycle;Signal;HPM_P1;HPM_P2
2022/07/08 00:00:39;;;;;;;3.80;2.05;;;19.90;46.90;;;;;;5115328;28;20714;-45
2022/07/08 00:03:05;;;;;;;7.57;3.37;;;19.80;46.90;;;;;;5115562;28;20285;-46
2022/07/08 00:05:31;;;;;;;4.30;2.07;;;19.80;46.90;;;;;;5115153;27;20427;-45
2022/07/08 00:07:57;;;;;;;7.20;2.20;;;19.80;46.70;;;;;;5115137;28;20409;-44
2022/07/08 00:10:23;;;;;;;6.43;2.40;;;19.70;46.50;;;;;;5115300;28;20190;-45
2022/07/08 00:12:48;;;;;;;7.07;2.40;;;19.70;46.80;;;;;;5113873;28;20547;-45
2022/07/08 00:15:14;;;;;;;5.60;1.90;;;19.70;46.90;;;;;;5115084;28;20267;-44
2022/07/08 00:17:40;;;;;;;6.45;2.65;;;19.70;46.80;;;;;;5115109;28;20259;-44
2022/07/08 00:20:07;;;;;;;11.85;2.90;;;19.60;46.90;;;;;;5115153;28;20664;-44
2022/07/08 00:22:33;;;;;;;2.90;1.63;;;19.60;47.10;;;;;;5114894;28;20678;-45
2022/07/08 00:25:00;;;;;;;3.45;1.95;;;19.60;47.10;;;;;;5115208;28;20182;-46
2022/07/08 00:27:26;;;;;;;5.95;2.20;;;19.60;46.90;;;;;;5114592;28;20228;-46
2022/07/08 00:29:51;;;;;;;3.53;1.73;;;19.50;47.00;;;;;;5114794;28;20179;-46
2022/07/08 00:32:18;;;;;;;5.23;2.00;;;19.50;47.70;;;;;;5114780;28;20293;-45
2022/07/08 00:34:43;;;;;;;4.07;1.40;;;19.50;47.10;;;;;;5114726;28;20534;-46
2022/07/08 00:37:09;;;;;;;4.27;2.27;;;19.50;47.10;;;;;;5114489;27;20167;-44
2022/07/08 00:39:36;;;;;;;8.27;1.97;;;19.50;47.00;;;;;;5114766;28;20168;-43
2022/07/08 00:42:02;;;;;;;2.55;1.70;;;19.50;47.30;;;;;;5114792;28;20425;-45
2022/07/08 00:44:27;;;;;;;2.83;1.30;;;19.50;47.30;;;;;;5114514;28;20231;-45
2022/07/08 00:46:53;;;;;;;2.83;1.37;;;19.50;47.20;;;;;;5114310;28;20413;-44
2022/07/08 00:49:19;;;;;;;9.70;2.90;;;19.50;47.20;;;;;;5114485;28;20397;-44
2022/07/08 00:51:47;;;;;;;4.97;1.90;;;19.50;46.80;;;;;;5114376;28;20531;-44
2022/07/08 00:54:15;;;;;;;4.53;1.42;;;19.50;47.00;;;;;;5114240;28;20207;-44
2022/07/08 00:56:41;;;;;;;4.95;1.70;;;19.50;47.00;;;;;;5113985;28;20185;-45
2022/07/08 00:59:09;;;;;;;3.47;1.60;;;19.50;47.10;;;;;;5114236;28;20555;-44
2022/07/08 01:01:35;;;;;;;3.78;1.70;;;19.40;47.10;;;;;;5114177;28;20911;-46
2022/07/08 01:04:02;;;;;;;5.07;1.58;;;19.40;47.40;;;;;;5114399;28;20271;-44
2022/07/08 01:06:27;;;;;;;2.72;1.70;;;19.40;46.90;;;;;;5114252;28;20647;-45
2022/07/08 01:08:54;;;;;;;9.80;1.97;;;19.40;47.10;;;;;;5114202;28;20211;-44
2022/07/08 01:11:19;;;;;;;6.97;2.42;;;19.40;47.20;;;;;;5113970;28;20175;-45
2022/07/08 01:13:47;;;;;;;4.90;1.77;;;19.40;47.30;;;;;;5113896;28;20214;-45
2022/07/08 01:16:13;;;;;;;3.30;2.08;;;19.40;47.50;;;;;;5113676;28;20266;-45
2022/07/08 01:18:41;;;;;;;5.45;2.45;;;19.40;47.10;;;;;;5113925;28;20240;-45
2022/07/08 01:21:07;;;;;;;4.90;1.50;;;19.40;47.30;;;;;;5114154;28;20171;-45
2022/07/08 01:23:33;;;;;;;7.47;1.65;;;19.40;47.30;;;;;;5113529;28;20270;-44
2022/07/08 01:26:02;;;;;;;5.70;2.00;;;19.40;47.40;;;;;;5113732;28;20217;-45
2022/07/08 01:28:28;;;;;;;2.90;1.48;;;19.40;47.50;;;;;;5113760;28;20171;-45
2022/07/08 01:30:53;;;;;;;2.67;1.50;;;19.40;47.50;;;;;;5114056;28;20718;-45
2022/07/08 01:33:19;;;;;;;7.40;2.40;;;19.40;47.20;;;;;;5113338;28;20718;-45
2022/07/08 01:35:45;;;;;;;5.80;2.60;;;19.40;47.30;;;;;;5113626;28;20247;-45
2022/07/08 01:38:11;;;;;;;5.90;1.87;;;19.40;47.30;;;;;;5113603;28;20164;-45
2022/07/08 01:40:37;;;;;;;2.73;1.63;;;19.40;47.30;;;;;;5113482;28;20163;-44
2022/07/08 01:43:02;;;;;;;6.37;2.13;;;19.40;47.40;;;;;;5113353;28;20192;-45
2022/07/08 01:45:28;;;;;;;3.63;1.73;;;19.40;47.50;;;;;;5113342;28;20412;-45
2022/07/08 01:47:54;;;;;;;5.73;1.90;;;19.40;47.50;;;;;;5113216;28;20198;-45
2022/07/08 01:50:20;;;;;;;3.90;1.83;;;19.40;47.50;;;;;;5113354;28;20250;-45
2022/07/08 01:52:46;;;;;;;6.67;1.93;;;19.40;47.10;;;;;;5113072;28;20206;-45
2022/07/08 01:55:12;;;;;;;8.65;2.00;;;19.40;47.20;;;;;;5111572;22;20545;-45
2022/07/08 01:57:37;;;;;;;9.93;2.03;;;19.30;47.20;;;;;;5092204;28;20254;-44
2022/07/08 02:00:06;;;;;;;6.03;2.50;;;19.30;47.00;;;;;;5093031;28;20172;-45
2022/07/08 02:02:31;;;;;;;6.10;2.20;;;19.30;47.10;;;;;;5092684;28;20305;-45
2022/07/08 02:04:57;;;;;;;6.77;2.27;;;19.30;47.30;;;;;;5092859;28;20282;-45
2022/07/08 02:07:23;;;;;;;4.67;1.80;;;19.30;47.20;;;;;;5092449;28;20521;-44
2022/07/08 02:09:49;;;;;;;6.20;1.70;;;19.30;47.10;;;;;;5092612;28;20167;-45
2022/07/08 02:12:20;;;;;;;4.60;1.97;;;19.30;46.90;;;;;;5092668;28;20168;-45
2022/07/08 02:14:51;;;;;;;2.58;1.50;;;19.20;46.90;;;;;;5092508;28;20203;-44
2022/07/08 02:17:18;;;;;;;5.30;1.95;;;19.30;47.00;;;;;;5092281;28;20195;-44
2022/07/08 02:19:45;;;;;;;6.57;1.98;;;19.20;46.60;;;;;;5092481;28;20187;-45
2022/07/08 02:22:11;;;;;;;12.90;2.65;;;19.20;46.70;;;;;;5092446;28;20172;-44
2022/07/08 02:24:37;;;;;;;5.55;2.50;;;19.30;46.80;;;;;;5092287;28;20186;-45
2022/07/08 02:27:04;;;;;;;3.25;1.38;;;19.30;46.80;;;;;;5092434;28;20263;-43
2022/07/08 02:29:30;;;;;;;4.28;2.10;;;19.30;46.80;;;;;;5092312;28;20178;-44
2022/07/08 02:31:57;;;;;;;3.58;1.42;;;19.30;46.60;;;;;;5092200;28;20179;-44
2022/07/08 02:34:23;;;;;;;3.65;1.77;;;19.30;46.40;;;;;;5091810;28;20274;-44
2022/07/08 02:36:49;;;;;;;7.07;2.00;;;19.30;46.50;;;;;;5092109;28;20170;-43
2022/07/08 02:39:15;;;;;;;6.50;1.80;;;19.30;46.40;;;;;;5092126;28;20452;-44
2022/07/08 02:41:41;;;;;;;8.47;2.03;;;19.30;46.40;;;;;;5092243;28;20258;-43
2022/07/08 02:44:07;;;;;;;9.30;3.30;;;19.20;46.60;;;;;;5092148;28;20410;-43
2022/07/08 02:46:34;;;;;;;3.90;2.07;;;19.20;46.40;;;;;;5091811;28;20203;-43
2022/07/08 02:49:00;;;;;;;5.00;1.40;;;19.20;46.60;;;;;;5092158;28;20409;-44
2022/07/08 02:51:26;;;;;;;3.73;1.37;;;19.30;46.70;;;;;;5092391;28;20172;-43
2022/07/08 02:53:51;;;;;;;7.27;2.00;;;19.30;46.70;;;;;;5091969;28;21149;-44
2022/07/08 02:56:17;;;;;;;6.53;1.77;;;19.30;46.70;;;;;;5090453;28;20460;-43
2022/07/08 02:58:43;;;;;;;4.63;1.40;;;19.30;46.80;;;;;;5092095;28;20164;-43
2022/07/08 03:01:09;;;;;;;5.17;1.60;;;19.30;47.00;;;;;;5092258;28;20636;-43
2022/07/08 03:03:34;;;;;;;8.73;2.90;;;19.30;47.00;;;;;;5092199;28;20689;-44
2022/07/08 03:06:00;;;;;;;4.50;1.70;;;19.30;47.10;;;;;;5091689;28;20789;-44
2022/07/08 03:08:26;;;;;;;9.83;2.77;;;19.20;47.00;;;;;;5091854;28;20172;-46
2022/07/08 03:10:52;;;;;;;3.67;1.73;;;19.20;47.10;;;;;;5092164;28;20414;-43
2022/07/08 03:13:18;;;;;;;9.70;2.43;;;19.20;47.50;;;;;;5091891;28;20198;-45
2022/07/08 03:15:44;;;;;;;5.07;2.27;;;19.10;47.50;;;;;;5091549;28;20535;-45
2022/07/08 03:18:09;;;;;;;2.78;2.05;;;19.10;47.80;;;;;;5091883;28;20639;-45
2022/07/08 03:20:35;;;;;;;5.30;1.60;;;19.10;48.20;;;;;;5091843;28;20179;-45
2022/07/08 03:23:01;;;;;;;3.70;2.70;;;19.10;48.10;;;;;;5091755;28;20410;-44
2022/07/08 03:25:29;;;;;;;8.13;3.17;;;19.10;48.40;;;;;;5091650;28;20192;-44
2022/07/08 03:27:55;;;;;;;6.88;1.85;;;19.00;48.10;;;;;;5091843;28;20204;-46
2022/07/08 03:30:21;;;;;;;5.60;2.90;;;19.00;48.20;;;;;;5091760;28;20172;-46
2022/07/08 03:32:47;;;;;;;9.67;2.73;;;19.00;48.40;;;;;;5091632;28;20690;-46
2022/07/08 03:35:12;;;;;;;12.43;2.70;;;19.00;48.80;;;;;;5091672;28;20508;-46
2022/07/08 03:37:43;;;;;;;4.90;2.20;;;18.90;48.50;;;;;;5091479;28;20247;-44
2022/07/08 03:42:55;;;;;;;3.05;1.95;;;19.00;48.30;;;;;;5091968;28;20203;-44
2022/07/08 03:45:20;;;;;;;4.90;2.28;;;18.90;48.50;;;;;;5091813;28;20192;-44
2022/07/08 03:47:46;;;;;;;5.23;2.37;;;18.90;48.70;;;;;;5095137;28;20229;-44
2022/07/08 03:50:13;;;;;;;5.70;2.23;;;18.90;48.90;;;;;;5095245;28;20406;-44
2022/07/08 03:52:39;;;;;;;5.80;2.28;;;18.90;48.70;;;;;;5095143;28;20500;-44
2022/07/08 03:55:05;;;;;;;6.07;1.93;;;18.90;49.50;;;;;;5094949;28;20287;-45
2022/07/08 03:57:31;;;;;;;9.50;3.38;;;19.00;48.90;;;;;;5094918;28;20175;-45
2022/07/08 03:59:57;;;;;;;5.63;2.63;;;19.00;48.90;;;;;;5095127;28;20179;-44
2022/07/08 04:02:23;;;;;;;5.63;2.33;;;19.00;48.80;;;;;;5095136;28;20179;-44
2022/07/08 04:04:49;;;;;;;4.57;2.30;;;19.00;48.80;;;;;;5094946;28;20184;-45
2022/07/08 04:07:15;;;;;;;6.70;2.50;;;19.00;48.70;;;;;;5094912;28;20404;-44
2022/07/08 04:09:41;;;;;;;3.75;1.90;;;19.00;48.80;;;;;;5095022;28;20459;-45
2022/07/08 04:12:08;;;;;;;4.47;2.60;;;19.10;48.70;;;;;;5094780;28;20168;-44
2022/07/08 04:14:33;;;;;;;5.10;2.15;;;19.00;48.60;;;;;;5094640;28;20734;-44
2022/07/08 04:16:59;;;;;;;8.57;2.07;;;19.10;48.70;;;;;;5094433;28;20267;-45
2022/07/08 04:19:25;;;;;;;5.67;2.73;;;19.00;48.70;;;;;;5094663;28;20264;-45
2022/07/08 04:21:51;;;;;;;4.87;2.27;;;19.00;48.60;;;;;;5094589;28;20175;-44
2022/07/08 04:24:16;;;;;;;4.73;2.10;;;19.10;48.70;;;;;;5094437;28;20340;-45
2022/07/08 04:26:42;;;;;;;10.50;2.47;;;19.10;49.00;;;;;;5094586;28;20176;-44
2022/07/08 04:29:08;;;;;;;6.30;2.67;;;19.10;49.70;;;;;;5094447;28;20208;-44
2022/07/08 04:31:34;;;;;;;9.53;3.07;;;19.10;48.50;;;;;;5094395;28;20416;-45
2022/07/08 04:33:59;;;;;;;7.23;2.53;;;19.10;48.40;;;;;;5094407;28;20276;-45
2022/07/08 04:36:26;;;;;;;5.03;2.20;;;19.10;48.50;;;;;;5093964;28;20240;-45
2022/07/08 04:38:52;;;;;;;8.57;3.20;;;19.10;48.50;;;;;;5094180;28;20175;-44
2022/07/08 04:41:18;;;;;;;5.50;2.50;;;19.20;48.70;;;;;;5094513;28;20172;-44
2022/07/08 04:43:44;;;;;;;6.43;2.37;;;19.10;48.70;;;;;;5094303;28;20697;-46
2022/07/08 04:46:11;;;;;;;4.53;2.00;;;19.20;48.90;;;;;;5093837;28;20188;-45
2022/07/08 04:48:37;;;;;;;11.70;2.70;;;19.20;48.80;;;;;;5094006;28;20175;-46
2022/07/08 04:51:03;;;;;;;15.20;2.93;;;19.20;48.80;;;;;;5093993;28;20168;-47
2022/07/08 04:53:29;;;;;;;7.35;2.58;;;19.20;48.80;;;;;;5093812;28;20192;-43
2022/07/08 04:55:55;;;;;;;11.13;2.90;;;19.30;48.90;;;;;;5093498;28;20291;-43
2022/07/08 04:58:20;;;;;;;8.67;2.93;;;19.30;49.60;;;;;;5093204;28;20255;-44
2022/07/08 05:00:47;;;;;;;15.13;3.40;;;19.30;48.60;;;;;;5093931;28;20175;-45
2022/07/08 05:03:13;;;;;;;7.03;2.55;;;19.30;48.70;;;;;;5093871;28;20179;-44
2022/07/08 05:05:38;;;;;;;4.17;2.43;;;19.30;48.70;;;;;;5092105;28;20702;-43
2022/07/08 05:08:04;;;;;;;6.00;3.63;;;19.40;48.60;;;;;;5093628;28;20414;-45
2022/07/08 05:10:30;;;;;;;9.20;2.70;;;19.40;48.60;;;;;;5093873;28;20168;-44
2022/07/08 05:12:59;;;;;;;8.80;3.10;;;19.40;48.60;;;;;;5093393;28;20450;-43
2022/07/08 05:15:25;;;;;;;6.15;2.53;;;19.40;48.40;;;;;;5093544;28;20591;-43
2022/07/08 05:17:55;;;;;;;6.10;4.93;;;19.50;48.40;;;;;;5093478;28;20174;-44
2022/07/08 05:20:21;;;;;;;9.23;3.78;;;19.50;48.70;;;;;;5093323;28;20662;-45
2022/07/08 05:22:47;;;;;;;5.20;2.90;;;19.50;48.50;;;;;;5093533;28;20180;-44
2022/07/08 05:25:13;;;;;;;4.53;2.13;;;19.50;48.50;;;;;;5093031;28;20335;-45
2022/07/08 05:27:40;;;;;;;13.32;2.72;;;19.40;48.50;;;;;;5093354;28;20414;-43
2022/07/08 05:30:08;;;;;;;12.15;3.47;;;19.50;48.80;;;;;;5093507;28;20263;-43
2022/07/08 05:32:34;;;;;;;8.80;2.85;;;19.50;48.60;;;;;;5093296;28;20179;-44
2022/07/08 05:35:01;;;;;;;7.55;2.42;;;19.50;48.50;;;;;;5093007;28;20220;-43
2022/07/08 05:37:27;;;;;;;5.90;2.47;;;19.50;48.70;;;;;;5092755;28;20156;-45
2022/07/08 05:39:52;;;;;;;6.07;2.30;;;19.50;48.60;;;;;;5093005;28;20190;-45
2022/07/08 05:42:18;;;;;;;6.63;3.40;;;19.50;48.80;;;;;;5091744;28;20200;-44
2022/07/08 05:44:44;;;;;;;4.83;2.93;;;19.50;48.70;;;;;;5092808;28;20195;-43
2022/07/08 05:47:10;;;;;;;5.27;2.70;;;19.50;49.00;;;;;;5092778;28;20164;-44
2022/07/08 05:49:36;;;;;;;10.13;2.73;;;19.50;48.70;;;;;;5092719;28;20285;-44
2022/07/08 05:52:05;;;;;;;4.07;2.30;;;19.60;48.60;;;;;;5092642;28;20237;-44
2022/07/08 05:54:32;;;;;;;8.15;2.90;;;19.60;48.60;;;;;;5092748;28;20220;-44
2022/07/08 05:56:59;;;;;;;6.03;2.63;;;19.60;48.60;;;;;;5092423;28;20235;-44
2022/07/08 05:59:25;;;;;;;5.32;2.60;;;19.50;48.40;;;;;;5092804;28;20233;-45
2022/07/08 06:01:51;;;;;;;3.88;2.28;;;19.50;48.50;;;;;;5091174;28;20195;-44
2022/07/08 06:04:17;;;;;;;15.23;3.27;;;19.60;48.40;;;;;;5092255;28;20180;-45
2022/07/08 06:06:43;;;;;;;5.55;2.65;;;19.60;48.50;;;;;;5092470;28;20172;-44
2022/07/08 06:09:09;;;;;;;7.50;3.03;;;19.60;48.50;;;;;;5091860;28;20706;-43
2022/07/08 06:11:35;;;;;;;7.00;2.77;;;19.60;48.40;;;;;;5092452;28;20176;-43
2022/07/08 06:14:00;;;;;;;16.13;3.63;;;19.60;48.70;;;;;;5092533;28;20450;-43
2022/07/08 06:16:26;;;;;;;13.70;3.07;;;19.60;48.70;;;;;;5092223;28;20732;-43
2022/07/08 06:18:52;;;;;;;13.50;3.40;;;19.60;48.60;;;;;;5092208;28;20267;-44
2022/07/08 06:21:18;;;;;;;9.05;2.75;;;19.70;48.60;;;;;;5093038;28;20175;-43
2022/07/08 06:23:44;;;;;;;7.27;3.40;;;19.70;48.60;;;;;;5092548;28;20203;-45
2022/07/08 06:26:11;;;;;;;9.30;3.60;;;19.70;48.70;;;;;;5092395;28;20237;-45
2022/07/08 06:28:37;;;;;;;6.45;2.60;;;19.80;48.50;;;;;;5092581;28;20160;-42
2022/07/08 06:31:03;;;;;;;8.13;3.45;;;19.80;48.90;;;;;;5092891;28;20184;-43
2022/07/08 06:33:29;;;;;;;12.13;3.03;;;19.90;48.60;;;;;;5092454;28;20705;-43
2022/07/08 06:35:54;;;;;;;6.53;3.23;;;19.80;48.60;;;;;;5092747;28;20425;-44
2022/07/08 06:38:20;;;;;;;8.90;3.30;;;19.90;48.80;;;;;;5092167;28;20168;-45
2022/07/08 06:40:46;;;;;;;13.83;3.63;;;19.90;48.70;;;;;;5092140;28;20172;-44
2022/07/08 06:43:12;;;;;;;13.97;2.60;;;20.00;48.70;;;;;;5092474;28;20183;-44
2022/07/08 06:45:37;;;;;;;14.47;3.60;;;20.00;48.60;;;;;;5091944;28;20722;-43
2022/07/08 06:48:04;;;;;;;6.23;2.67;;;20.00;49.30;;;;;;5091895;28;20186;-43
2022/07/08 06:50:30;;;;;;;6.97;3.58;;;20.00;48.50;;;;;;5092289;28;20406;-43
2022/07/08 06:52:56;;;;;;;5.50;3.43;;;20.00;48.50;;;;;;5092014;28;20563;-43
2022/07/08 06:55:22;;;;;;;12.18;3.95;;;20.10;48.60;;;;;;5091729;28;20438;-44
2022/07/08 06:57:48;;;;;;;8.75;3.90;;;20.10;48.30;;;;;;5091701;28;20175;-44
2022/07/08 07:00:15;;;;;;;18.15;3.35;;;20.10;48.10;;;;;;5092005;28;20187;-43
2022/07/08 07:02:41;;;;;;;12.68;3.65;;;20.10;48.10;;;;;;5091891;28;20178;-43
2022/07/08 07:05:08;;;;;;;9.95;3.30;;;20.10;48.30;;;;;;5091812;28;20228;-44
2022/07/08 07:07:34;;;;;;;7.55;2.63;;;20.10;48.20;;;;;;5091782;28;20171;-43
2022/07/08 07:10:01;;;;;;;7.22;3.83;;;20.10;48.40;;;;;;5092162;28;20175;-42
2022/07/08 07:12:27;;;;;;;9.93;3.25;;;20.10;48.30;;;;;;5091861;28;20198;-43
2022/07/08 07:14:52;;;;;;;10.27;3.20;;;20.10;48.50;;;;;;5091720;28;20235;-43
2022/07/08 07:17:19;;;;;;;9.63;3.20;;;20.20;48.50;;;;;;5091518;28;20411;-43
2022/07/08 07:19:46;;;;;;;9.90;3.20;;;20.20;48.30;;;;;;5091694;28;20893;-43
2022/07/08 07:22:13;;;;;;;8.52;2.40;;;20.20;48.00;;;;;;5095063;28;20179;-43
2022/07/08 07:24:39;;;;;;;4.75;2.85;;;20.20;47.90;;;;;;5095801;28;20196;-43
2022/07/08 07:27:05;;;;;;;10.03;2.90;;;20.10;47.90;;;;;;5095464;28;20176;-43
2022/07/08 07:29:31;;;;;;;5.82;2.45;;;20.10;48.10;;;;;;5095655;28;20488;-43
2022/07/08 07:31:57;;;;;;;9.05;3.35;;;20.10;48.20;;;;;;5095391;28;20694;-43
2022/07/08 07:34:22;;;;;;;7.33;2.93;;;20.20;48.20;;;;;;5095461;28;20233;-43
2022/07/08 07:36:48;;;;;;;4.93;2.70;;;20.20;48.20;;;;;;5095694;28;20266;-43
2022/07/08 07:39:14;;;;;;;10.57;2.83;;;20.20;48.10;;;;;;5095735;28;20179;-43
2022/07/08 07:41:40;;;;;;;3.53;2.50;;;20.20;48.20;;;;;;5095381;28;20543;-43
2022/07/08 07:44:06;;;;;;;8.40;2.20;;;20.20;48.10;;;;;;5095696;28;20421;-44
2022/07/08 07:46:32;;;;;;;7.70;3.65;;;20.20;48.10;;;;;;5094894;28;20195;-44
2022/07/08 07:48:59;;;;;;;6.22;3.00;;;20.30;48.30;;;;;;5095291;28;20172;-43
2022/07/08 07:51:24;;;;;;;6.80;2.75;;;20.30;48.20;;;;;;5095234;28;20168;-44
2022/07/08 07:53:50;;;;;;;5.20;3.60;;;20.30;47.70;;;;;;5095244;28;20203;-43
2022/07/08 07:56:16;;;;;;;7.00;2.47;;;20.30;47.50;;;;;;5094709;28;20203;-44
2022/07/08 07:58:42;;;;;;;6.63;3.27;;;20.30;47.80;;;;;;5095384;28;20171;-44
2022/07/08 08:01:07;;;;;;;6.77;3.10;;;20.30;47.80;;;;;;5123620;22;20219;-47
2022/07/08 08:03:33;;;;;;;5.47;1.90;;;20.30;47.60;;;;;;5115398;28;20198;-47
2022/07/08 08:06:00;;;;;;;8.47;2.80;;;20.40;47.70;;;;;;5115104;28;20470;-50
2022/07/08 08:08:33;;;;;;;4.78;2.10;;;20.30;47.50;;;;;;5115468;28;20167;-50
2022/07/08 08:11:01;;;;;;;8.13;2.10;;;20.40;47.50;;;;;;5115264;28;20207;-50
2022/07/08 08:13:27;;;;;;;5.75;2.47;;;20.40;47.80;;;;;;5115168;28;20237;-49
2022/07/08 08:15:54;;;;;;;5.72;3.17;;;20.40;47.70;;;;;;5115285;28;20202;-49
2022/07/08 08:18:20;;;;;;;7.47;2.63;;;20.40;47.30;;;;;;5115365;28;20193;-49
2022/07/08 08:20:46;;;;;;;5.53;2.70;;;20.40;47.10;;;;;;5115300;28;20721;-50
2022/07/08 08:23:12;;;;;;;5.15;2.17;;;20.50;47.20;;;;;;5115079;28;20511;-50
2022/07/08 08:25:38;;;;;;;5.63;2.50;;;20.50;47.10;;;;;;5115173;28;20171;-49
2022/07/08 08:28:04;;;;;;;4.20;2.23;;;20.50;47.10;;;;;;5115152;28;20405;-50
2022/07/08 08:30:31;;;;;;;8.02;2.78;;;20.50;47.10;;;;;;5114891;28;20427;-49
2022/07/08 08:32:57;;;;;;;5.50;2.47;;;20.50;47.10;;;;;;5113700;28;20199;-49
2022/07/08 08:35:24;;;;;;;4.63;2.10;;;20.60;46.80;;;;;;5115029;28;20178;-49
2022/07/08 08:37:50;;;;;;;4.57;1.80;;;20.60;47.00;;;;;;5114577;28;20186;-49
2022/07/08 08:40:16;;;;;;;5.15;2.42;;;20.60;46.70;;;;;;5114916;27;20191;-49
2022/07/08 08:42:42;;;;;;;4.80;2.17;;;20.70;46.40;;;;;;5114667;28;20538;-50
2022/07/08 08:45:11;;;;;;;6.35;2.13;;;20.80;46.10;;;;;;5114792;28;20405;-49
2022/07/08 08:47:37;;;;;;;7.82;2.90;;;20.90;46.30;;;;;;5114403;28;20186;-48
2022/07/08 08:52:54;;;;;;;5.40;2.50;;;21.10;46.30;;;;;;5114703;28;20206;-49
2022/07/08 08:55:28;;;;;;;6.47;2.55;;;21.20;46.00;;;;;;5114410;28;20250;-49
2022/07/08 08:58:02;;;;;;;5.38;2.20;;;21.30;46.20;;;;;;5114137;28;20167;-49
2022/07/08 09:00:31;;;;;;;5.50;2.20;;;21.40;45.90;;;;;;5114113;28;20194;-47
2022/07/08 09:02:58;;;;;;;8.85;2.75;;;21.50;46.60;;;;;;5114363;28;20224;-48
2022/07/08 09:05:25;;;;;;;3.97;2.50;;;21.50;44.70;;;;;;5114453;28;20175;-49
2022/07/08 09:07:51;;;;;;;4.28;2.30;;;21.50;44.20;;;;;;5114358;28;20193;-48
2022/07/08 09:10:18;;;;;;;6.60;2.55;;;21.40;44.30;;;;;;5114036;28;20187;-49
2022/07/08 09:13:04;;;;;;;4.72;2.08;;;21.30;44.50;;;;;;5113957;28;20174;-49
2022/07/08 09:15:33;;;;;;;8.15;2.22;;;21.40;44.50;;;;;;5113792;28;20225;-48
2022/07/08 09:18:06;;;;;;;6.88;3.38;;;21.30;44.50;;;;;;5113954;28;20174;-49
2022/07/08 09:20:52;;;;;;;10.63;2.85;;;21.30;44.80;;;;;;5113869;28;20191;-49
2022/07/08 09:23:22;;;;;;;4.00;2.28;;;21.30;44.30;;;;;;5113894;28;20515;-48
2022/07/08 09:25:50;;;;;;;3.70;2.50;;;21.30;44.80;;;;;;5113598;28;20631;-48
2022/07/08 09:28:27;;;;;;;2.92;1.98;;;21.40;44.60;;;;;;5113681;28;20249;-48
2022/07/08 09:30:55;;;;;;;5.95;3.25;;;21.50;44.30;;;;;;5113647;28;20187;-48
2022/07/08 09:33:21;;;;;;;5.22;2.65;;;21.70;45.00;;;;;;5113490;28;20187;-49
2022/07/08 09:35:50;;;;;;;3.17;1.77;;;21.90;45.00;;;;;;5113492;28;20174;-48
2022/07/08 09:38:18;;;;;;;4.80;2.35;;;22.10;44.90;;;;;;5113834;28;20175;-49
2022/07/08 09:40:57;;;;;;;5.03;2.53;;;22.30;44.00;;;;;;5113470;28;20187;-48
2022/07/08 09:43:24;;;;;;;8.45;2.20;;;22.50;42.80;;;;;;5113290;28;20171;-49
2022/07/08 09:45:51;;;;;;;2.90;1.77;;;22.40;42.10;;;;;;5113064;28;20178;-49
2022/07/08 09:48:17;;;;;;;4.90;2.78;;;22.40;42.50;;;;;;5113297;28;20285;-47
2022/07/08 09:50:47;;;;;;;4.57;2.20;;;22.40;41.90;;;;;;5113274;28;20191;-48
2022/07/08 09:53:18;;;;;;;3.60;1.90;;;22.20;41.50;;;;;;5113157;28;20195;-48
2022/07/08 09:55:51;;;;;;;6.85;2.55;;;22.10;42.50;;;;;;5113044;28;20173;-49
2022/07/08 09:58:20;;;;;;;5.70;2.72;;;22.10;43.00;;;;;;5113068;28;20236;-49
2022/07/08 10:00:50;;;;;;;5.78;2.38;;;22.10;43.00;;;;;;5112836;28;20199;-49
2022/07/08 10:03:17;;;;;;;3.55;2.20;;;22.10;42.70;;;;;;5113079;28;20163;-48
2022/07/08 10:05:44;;;;;;;7.25;2.22;;;22.00;42.50;;;;;;5112842;28;20190;-49
2022/07/08 10:08:10;;;;;;;8.77;1.87;;;22.10;43.10;;;;;;5113039;28;20534;-49
2022/07/08 10:10:38;;;;;;;6.07;2.27;;;22.20;41.60;;;;;;5112889;28;20421;-47
2022/07/08 10:13:05;;;;;;;5.00;2.50;;;22.30;41.50;;;;;;5112832;28;21177;-48
2022/07/08 10:15:32;;;;;;;6.90;2.20;;;22.40;42.50;;;;;;5112779;28;20183;-49
2022/07/08 10:18:05;;;;;;;4.80;2.60;;;22.60;42.60;;;;;;5112854;28;20444;-49
2022/07/08 10:20:35;;;;;;;4.20;2.22;;;22.80;42.40;;;;;;5112775;28;20436;-49
2022/07/08 10:23:08;;;;;;;5.78;2.85;;;22.90;41.80;;;;;;5112787;28;20538;-47
2022/07/08 10:25:35;;;;;;;3.65;2.17;;;22.90;41.30;;;;;;5112656;28;20155;-48
2022/07/08 10:28:08;;;;;;;5.03;2.10;;;22.90;41.00;;;;;;5112570;28;20806;-49
2022/07/08 10:30:46;;;;;;;3.20;2.33;;;22.80;41.00;;;;;;5112554;28;20492;-49
2022/07/08 10:33:27;;;;;;;12.18;1.80;;;22.70;40.10;;;;;;5112865;28;20543;-49
2022/07/08 10:36:05;;;;;;;3.30;2.47;;;22.60;39.70;;;;;;5112599;28;20626;-49
2022/07/08 10:38:50;;;;;;;4.15;1.70;;;22.50;40.40;;;;;;5112645;28;20223;-48
2022/07/08 10:41:21;;;;;;;5.20;1.67;;;22.40;40.30;;;;;;5112575;28;20183;-49
2022/07/08 10:43:54;;;;;;;4.60;2.00;;;22.30;40.60;;;;;;5112698;28;20915;-49
2022/07/08 10:46:24;;;;;;;6.80;2.35;;;22.30;40.40;;;;;;5112273;28;20393;-49
2022/07/08 10:49:12;;;;;;;4.80;2.15;;;22.30;39.90;;;;;;5112749;28;20179;-48
2022/07/08 10:51:45;;;;;;;7.57;2.00;;;22.40;39.90;;;;;;5112406;28;20658;-48
2022/07/08 10:54:24;;;;;;;4.97;2.63;;;22.40;40.40;;;;;;5112693;28;20206;-49
2022/07/08 10:56:55;;;;;;;4.63;2.03;;;22.40;39.70;;;;;;5115064;28;20416;-48
2022/07/08 10:59:23;;;;;;;4.57;1.77;;;22.40;40.10;;;;;;5116796;27;20175;-49
2022/07/08 11:01:50;;;;;;;3.92;1.50;;;22.40;39.50;;;;;;5116538;28;20420;-49
2022/07/08 11:04:34;;;;;;;5.00;2.00;;;22.40;39.60;;;;;;5116596;28;20179;-49
2022/07/08 11:07:23;;;;;;;3.38;1.83;;;22.40;39.40;;;;;;5116247;27;20397;-49
2022/07/08 11:10:08;;;;;;;6.65;2.20;;;22.50;39.40;;;;;;5116565;27;20554;-49
2022/07/08 11:12:36;;;;;;;3.90;2.00;;;22.50;39.50;;;;;;5116344;28;20310;-49
2022/07/08 11:15:05;;;;;;;9.57;2.20;;;22.50;39.70;;;;;;5116327;28;20234;-49
2022/07/08 11:17:36;;;;;;;2.60;1.60;;;22.50;39.50;;;;;;5116006;28;20404;-49
2022/07/08 11:20:09;;;;;;;7.50;2.00;;;22.50;38.60;;;;;;5116419;28;20223;-49
2022/07/08 11:22:37;;;;;;;9.27;1.55;;;22.40;38.40;;;;;;5116196;28;20873;-48
2022/07/08 11:25:04;;;;;;;5.32;2.58;;;22.40;38.60;;;;;;5116213;28;20520;-49
2022/07/08 11:27:33;;;;;;;2.20;1.42;;;22.30;38.90;;;;;;5115800;28;20220;-48
2022/07/08 11:30:00;;;;;;;4.50;1.95;;;22.20;39.80;;;;;;5115889;28;20228;-49
2022/07/08 11:32:27;;;;;;;2.17;1.47;;;22.20;40.00;;;;;;5115984;28;20179;-49
2022/07/08 11:34:56;;;;;;;2.70;1.60;;;22.30;40.10;;;;;;5115806;28;20944;-47
2022/07/08 11:37:22;;;;;;;2.47;1.50;;;22.40;39.10;;;;;;5115645;28;20408;-49
2022/07/08 11:39:49;;;;;;;4.25;1.45;;;22.40;39.20;;;;;;5115834;28;20424;-48
2022/07/08 11:42:16;;;;;;;5.43;1.67;;;22.40;38.60;;;;;;5116113;28;20574;-47
2022/07/08 11:44:43;;;;;;;2.17;1.37;;;22.40;38.80;;;;;;5115954;28;20400;-49
2022/07/08 11:47:15;;;;;;;4.05;1.90;;;22.40;39.20;;;;;;5115679;28;20404;-48
2022/07/08 11:49:47;;;;;;;4.80;1.70;;;22.30;39.10;;;;;;5115809;28;20191;-49
2022/07/08 11:52:16;;;;;;;3.40;2.43;;;22.20;38.60;;;;;;5115668;28;20409;-49
2022/07/08 11:54:45;;;;;;;4.90;2.70;;;22.20;38.70;;;;;;5115558;27;20445;-49
2022/07/08 11:57:12;;;;;;;8.57;2.30;;;22.10;39.20;;;;;;5115236;28;20749;-49
2022/07/08 11:59:37;;;;;;;5.03;1.88;;;22.10;39.20;;;;;;5115315;28;20163;-48
2022/07/08 12:02:04;;;;;;;11.43;2.50;;;22.10;39.00;;;;;;5115796;28;20569;-49
2022/07/08 12:04:31;;;;;;;3.97;2.75;;;22.00;39.50;;;;;;5115483;28;20182;-48
2022/07/08 12:07:01;;;;;;;12.60;2.45;;;22.00;39.30;;;;;;5113951;28;20175;-48
2022/07/08 12:09:28;;;;;;;2.55;1.80;;;22.00;39.40;;;;;;5114974;28;20172;-48
2022/07/08 12:11:56;;;;;;;7.25;2.70;;;22.00;39.40;;;;;;5115142;28;20179;-48
2022/07/08 12:14:24;;;;;;;6.73;3.27;;;22.00;38.80;;;;;;5115293;28;20256;-49
2022/07/08 12:16:51;;;;;;;7.55;3.33;;;21.90;38.70;;;;;;5115171;28;20397;-49
2022/07/08 12:19:36;;;;;;;24.83;15.77;;;21.90;39.20;;;;;;5115080;28;20254;-48
2022/07/08 12:22:12;;;;;;;8.45;4.78;;;22.00;39.40;;;;;;5114998;28;20173;-48
2022/07/08 12:24:41;;;;;;;3.40;2.47;;;22.00;39.30;;;;;;5114939;28;20185;-48
2022/07/08 12:27:09;;;;;;;3.67;2.37;;;22.00;38.70;;;;;;5114706;28;20401;-49
2022/07/08 12:29:37;;;;;;;4.90;1.90;;;22.00;39.00;;;;;;5114869;28;20401;-48
2022/07/08 12:32:04;;;;;;;3.08;2.50;;;22.00;39.40;;;;;;5114926;28;20169;-49
2022/07/08 12:34:30;;;;;;;3.57;2.40;;;22.10;39.30;;;;;;5115014;28;20285;-49
2022/07/08 12:37:12;;;;;;;5.20;2.60;;;22.20;39.40;;;;;;5114578;28;20489;-49
2022/07/08 12:39:38;;;;;;;4.90;2.37;;;22.40;39.50;;;;;;5114938;28;20286;-48
2022/07/08 12:42:05;;;;;;;4.10;1.90;;;22.50;38.60;;;;;;5114727;28;20532;-50
2022/07/08 12:44:41;;;;;;;6.00;2.65;;;22.60;38.80;;;;;;5114710;28;20262;-49
2022/07/08 12:47:11;;;;;;;4.93;2.13;;;22.70;38.90;;;;;;5114312;28;20181;-49
2022/07/08 12:49:39;;;;;;;9.17;2.87;;;22.90;38.40;;;;;;5114641;28;20861;-49
2022/07/08 12:52:07;;;;;;;5.50;2.40;;;23.20;38.70;;;;;;5114518;28;20432;-49